Nearby METAR Reports

 

KIMT - Iron Mountain, Michigan, USA
Distance from station: 0 29mi, 47km
Updated: Wed, 15-Aug-2018 4:54pm CDT
Partly cloudy
Partly cloudy
 Wind from E
Wind: E 6 mph , 9 km/h
Temperature: 81°F , 27°C
Heat Index: 83°F , 28°C
Dew Point: 66°F , 19°C
Humidity: 62%
Barometer: 29.94 inHg , 1013.9 hPa
Clouds: Partly cloudy
Visibility: 9 miles , 14 km
Cloud details: Partly cloudy 3800 ft
2018/08/15 21:54 KIMT 152154Z AUTO 08005KT 9SM SCT038 27/19 A2994 RMK AO2 SLP134 T02670189
KMNM - Menominee, Michigan, USA
Distance from station: SE 31mi, 51km
Updated: Wed, 15-Aug-2018 4:56pm CDT
Clear
Clear
 Wind from E
Wind: E 8 mph , 13 km/h
Temperature: 77°F , 25°C
Dew Point: 64°F , 18°C
Humidity: 65%
Barometer: 29.94 inHg , 1013.9 hPa
Clouds: Clear
Visibility: 10 miles , 16 km
2018/08/15 21:56 KMNM 152156Z AUTO 09007KT 10SM CLR 25/18 A2994 RMK AO2 SLP153 T02500183 $
 
KOCQ - Oconto, Wisconsin, USA
Distance from station: SSE 38mi, 61km
Updated: Wed, 15-Aug-2018 4:55pm CDT
Clear
Clear
 Wind from E
Wind: E 8 mph , 13 km/h
Temperature: 79°F , 26°C
Dew Point: 64°F , 18°C
Humidity: 61%
Barometer: 29.93 inHg , 1013.5 hPa
Clouds: Clear
Visibility: 10 miles , 16 km
2018/08/15 21:55 KOCQ 152155Z AUTO 09007KT 10SM CLR 26/18 A2993 RMK AO1 T02630182
KEZS - Shawano Muni, Wisconsin, USA
Distance from station: SSW 48mi, 77km
Updated: Wed, 15-Aug-2018 5:15pm CDT
Clear
Clear
 Wind from E
Wind: E 8 mph , 13 km/h
Temperature: 84°F , 29°C
Heat Index: 88°F , 31°C
Dew Point: 70°F , 21°C
Humidity: 62%
Barometer: 29.92 inHg , 1013.2 hPa
Clouds: Clear
Visibility: 10 miles , 16 km
2018/08/15 22:15 KEZS 152215Z AUTO 10007KT 10SM CLR 29/21 A2992 RMK AO2 T02900206
 
KAIG - Antigo/Langlade, Wisconsin, USA
Distance from station: WSW 51mi, 82km
Updated: Wed, 15-Aug-2018 4:55pm CDT
Partly cloudy
Partly cloudy
 Wind from SE
Wind: SE 9 mph , 15 km/h
Temperature: 82°F , 28°C
Heat Index: 84°F , 29°C
Dew Point: 64°F , 18°C
Humidity: 55%
Barometer: 29.95 inHg , 1014.2 hPa
Clouds: Partly cloudy
Visibility: 10 miles , 16 km
Cloud details: Partly cloudy 4000 ft
2018/08/15 21:55 KAIG 152155Z AUTO 14008KT 10SM SCT040 28/18 A2995 RMK AO2 T02800179
KSUE - Sturgeon Bay, Wisconsin, USA
Distance from station: SE 51mi, 82km
Updated: Wed, 15-Aug-2018 4:56pm CDT
Clear
Clear
 Wind from ESE
Wind: ESE 8 mph , 13 km/h
Temperature: 79°F , 26°C
Dew Point: 66°F , 19°C
Humidity: 65%
Barometer: 29.95 inHg , 1014.2 hPa
Clouds: Clear
Visibility: 10 miles , 16 km
2018/08/15 21:56 KSUE 152156Z AUTO 12007KT 10SM CLR 26/19 A2995 RMK AO2 SLP156 T02560189
 
KESC - Escanaba, Michigan, USA
Distance from station: ENE 56mi, 90km
Updated: Wed, 15-Aug-2018 4:56pm CDT
Clear
Clear
 Wind from SSE
Wind: SSE 7 mph , 11 km/h
Temperature: 75°F , 24°C
Dew Point: 64°F , 18°C
Humidity: 69%
Barometer: 29.95 inHg , 1014.2 hPa
Clouds: Clear
Visibility: 10 miles , 16 km
2018/08/15 21:56 KESC 152156Z AUTO 16006KT 10SM CLR 24/18 A2995 RMK AO2 SLP158 T02440178
KCLI - Clintonville, Wisconsin, USA
Distance from station: SSW 62mi, 99km
Updated: Wed, 15-Aug-2018 4:55pm CDT
Partly cloudy
Partly cloudy
 Wind from SSE
Wind: SSE 5 mph , 7 km/h
Temperature: 88°F , 31°C
Dew Point: 55°F , 13°C
Humidity: 33%
Barometer: 29.91 inHg , 1012.9 hPa
Clouds: Partly cloudy
Visibility: 10 miles , 16 km
Cloud details: Partly cloudy 7000 ft
2018/08/15 21:55 KCLI 152155Z AUTO 16004KT 10SM SCT070 31/13 A2991 RMK AO2 T03050125
 
KGRB - Ashwaubenon, Wisconsin, USA
Distance from station: S 63mi, 102km
Updated: Wed, 15-Aug-2018 4:53pm CDT
Clear
Clear
 Wind from NE
Wind: NE 15 mph , 24 km/h
Temperature: 82°F , 28°C
Heat Index: 86°F , 30°C
Dew Point: 72°F , 22°C
Humidity: 70%
Barometer: 29.92 inHg , 1013.2 hPa
Clouds: Clear
Visibility: 10 miles , 16 km
2018/08/15 21:53 KGRB 152153Z 04013KT 10SM CLR 28/22 A2992 RMK AO2 SLP129 T02780222
KEGV - Eagle River, Wisconsin, USA
Distance from station: NW 66mi, 107km
Updated: Wed, 15-Aug-2018 4:55pm CDT
Clear
Clear
 Wind from calm
Wind: Calm
Temperature: 79°F , 26°C
Dew Point: 63°F , 17°C
Humidity: 58%
Barometer: 29.95 inHg , 1014.2 hPa
Clouds: Clear
Visibility: 10 miles , 16 km
2018/08/15 21:55 KEGV 152155Z AUTO 00000KT 10SM CLR 26/17 A2995 RMK AO2 T02600173
 
KRHI - Rhinelander, Wisconsin, USA
Distance from station: WNW 68mi, 109km
Updated: Wed, 15-Aug-2018 4:53pm CDT
Few Clouds
Few Clouds
 Wind from calm
Wind: Calm
Temperature: 82°F , 28°C
Heat Index: 85°F , 29°C
Dew Point: 68°F , 20°C
Humidity: 62%
Barometer: 29.96 inHg , 1014.6 hPa
Clouds: Few Clouds
Visibility: 10 miles , 16 km
Cloud details: Few Clouds 3600 ft
2018/08/15 21:53 KRHI 152153Z AUTO 00000KT 10SM FEW036 28/20 A2996 RMK AO2 SLP137 T02780200
KLNL - Land O Lakes, Wisconsin, USA
Distance from station: NW 74mi, 119km
Updated: Wed, 15-Aug-2018 4:55pm CDT
Overcast
Overcast
 Wind from NE
Wind: NE 5 mph , 7 km/h
Temperature: 79°F , 26°C
Dew Point: 64°F , 18°C
Humidity: 61%
Barometer: 29.98 inHg , 1015.2 hPa
Clouds: Overcast
Visibility: 10 miles , 16 km
Cloud details: Mostly cloudy 3100 ft
Overcast 3800 ft
2018/08/15 21:55 KLNL 152155Z AUTO 05004KT 10SM BKN031 OVC038 26/18 A2998 RMK AO2 T02560178
 
KSAW - Gwinn/Sawyer, Michigan, USA
Distance from station: NNE 74mi, 120km
Updated: Wed, 15-Aug-2018 4:45pm CDT
Overcast
Overcast
 Wind from NE
Wind: NE 13 mph , 20 km/h
Temperature: 68°F , 20°C
Dew Point: 59°F , 15°C
Humidity: 73%
Barometer: 29.99 inHg , 1015.6 hPa
Clouds: Overcast
Visibility: 10 miles , 16 km
Cloud details: Overcast 3500 ft
2018/08/15 21:45 KSAW 152145Z 05011KT 10SM OVC035 20/15 A2999